Time;durP1;ratioP1;P1;durP2;ratioP2;P2;SDS_P1;SDS_P2;PMS_P1;PMS_P2;Temp;Humidity;BMP_temperature;BMP_pressure;BME280_temperature;BME280_humidity;BME280_pressure;Samples;Min_cycle;Max_cycle;Signal;HPM_P1;HPM_P2
2021/05/06 00:10:46;;;;;;;1.30;1.20;;;;;18.80;99749.00;;;;2077356;28;20595;-67
2021/05/06 00:14:26;;;;;;;1.20;1.08;;;;;18.80;99752.00;;;;2078041;28;20227;-67
2021/05/06 00:30:27;;;;;;;1.80;1.20;;;;;18.80;99727.00;;;;2077419;28;20217;-67
2021/05/06 00:32:38;;;;;;;1.50;1.30;;;;;18.80;99734.00;;;;2081084;28;20217;-67
2021/05/06 00:33:38;;;;;;;1.67;1.33;;;;;18.70;99730.00;;;;2080160;28;20220;-67
2021/05/06 00:34:39;;;;;;;1.37;1.20;;;;;18.80;99728.00;;;;2072221;28;20618;-68
2021/05/06 00:35:40;;;;;;;1.40;1.10;;;;;18.80;99726.00;;;;2069983;28;20222;-68
2021/05/06 00:36:40;;;;;;;1.57;1.30;;;;;18.80;99727.00;;;;2080474;28;20302;-67
2021/05/06 00:37:47;;;;;;;1.70;1.20;;;;;18.80;99720.00;;;;2080814;28;21343;-67
2021/05/06 00:38:51;;;;;;;1.30;1.20;;;;;18.80;99717.00;;;;2080552;28;20206;-67
2021/05/06 00:40:01;;;;;;;1.23;1.13;;;;;18.80;99713.00;;;;2081087;28;20301;-67
2021/05/06 00:41:23;;;;;;;1.30;1.20;;;;;18.70;99716.00;;;;2081203;28;20214;-67
2021/05/06 00:56:59;;;;;;;1.30;1.17;;;;;18.80;99689.00;;;;2080349;28;20301;-67
2021/05/06 01:01:19;;;;;;;1.40;1.23;;;;;18.70;99683.00;;;;2076794;28;20292;-67
2021/05/06 01:05:42;;;;;;;1.60;1.30;;;;;18.80;99679.00;;;;2073726;28;20214;-67
2021/05/06 01:06:56;;;;;;;1.48;1.10;;;;;18.70;99683.00;;;;2078804;28;20946;-67
2021/05/06 01:09:05;;;;;;;2.17;1.30;;;;;18.80;99675.00;;;;2073669;28;20697;-67
2021/05/06 01:10:21;;;;;;;1.58;1.25;;;;;18.70;99673.00;;;;2071434;28;20272;-67
2021/05/06 01:12:30;;;;;;;1.60;1.30;;;;;18.70;99676.00;;;;2080451;28;20209;-67
2021/05/06 01:13:32;;;;;;;2.07;1.67;;;;;18.70;99663.00;;;;2079803;28;21062;-67
2021/05/06 01:14:33;;;;;;;1.35;0.98;;;;;18.70;99669.00;;;;2080280;28;20213;-67
2021/05/06 01:15:33;;;;;;;1.40;1.10;;;;;18.70;99669.00;;;;2079335;28;20732;-67
2021/05/06 01:16:34;;;;;;;1.43;1.33;;;;;18.70;99668.00;;;;2079302;28;20559;-68
2021/05/06 01:17:34;;;;;;;1.33;1.23;;;;;18.70;99669.00;;;;2079791;28;20222;-67
2021/05/06 01:18:34;;;;;;;1.93;1.50;;;;;18.70;99665.00;;;;2071871;28;20219;-67
2021/05/06 01:19:35;;;;;;;1.80;1.40;;;;;18.70;99664.00;;;;2070301;28;20288;-68
2021/05/06 01:20:35;;;;;;;2.23;1.50;;;;;18.70;99657.00;;;;2080159;28;20557;-67
2021/05/06 01:21:35;;;;;;;1.53;1.10;;;;;18.70;99663.00;;;;2077444;28;20871;-67
2021/05/06 01:22:36;;;;;;;2.23;1.40;;;;;18.70;99651.00;;;;2080836;28;20211;-67
2021/05/06 01:23:40;;;;;;;1.20;1.10;;;;;18.70;99661.00;;;;2080738;28;20221;-67
2021/05/06 01:24:41;;;;;;;1.30;1.20;;;;;18.70;99654.00;;;;2080134;28;20696;-67
2021/05/06 01:25:48;;;;;;;1.50;1.40;;;;;18.70;99661.00;;;;2068435;28;20642;-67
2021/05/06 01:26:57;;;;;;;1.30;1.20;;;;;18.80;99658.00;;;;2080064;28;20696;-67
2021/05/06 01:28:02;;;;;;;1.50;1.35;;;;;18.70;99658.00;;;;2079669;28;20211;-67
2021/05/06 01:29:07;;;;;;;1.52;1.23;;;;;18.70;99651.00;;;;2079926;28;20217;-67
2021/05/06 01:31:19;;;;;;;1.50;1.38;;;;;18.70;99650.00;;;;2072664;28;20744;-67
2021/05/06 01:34:22;;;;;;;1.73;1.60;;;;;18.70;99649.00;;;;2080659;28;20218;-67
2021/05/06 01:35:37;;;;;;;1.40;1.27;;;;;18.70;99640.00;;;;2076672;28;20688;-66
2021/05/06 01:37:04;;;;;;;1.20;1.10;;;;;18.70;99645.00;;;;2080634;28;20588;-68
2021/05/06 01:42:46;;;;;;;1.95;1.25;;;;;18.70;99645.00;;;;2077607;28;20222;-67
2021/05/06 01:44:10;;;;;;;1.30;1.20;;;;;18.70;99649.00;;;;2079301;28;20214;-67
2021/05/06 01:47:54;;;;;;;1.20;1.10;;;;;18.70;99646.00;;;;2080342;28;20214;-67
2021/05/06 01:58:07;;;;;;;1.60;1.25;;;;;18.70;99622.00;;;;2079866;28;20221;-67
2021/05/06 01:59:52;;;;;;;1.42;1.00;;;;;18.70;99628.00;;;;2079339;28;20225;-67
2021/05/06 02:00:44;;;;;;;2.00;1.27;;;;;18.70;99632.00;;;;2065339;28;20202;-67
2021/05/06 02:01:45;;;;;;;1.42;1.13;;;;;18.70;99627.00;;;;2080256;28;20296;-67
2021/05/06 02:02:45;;;;;;;1.20;1.07;;;;;18.70;99628.00;;;;2080431;28;20214;-67
2021/05/06 02:03:45;;;;;;;2.27;1.37;;;;;18.70;99629.00;;;;2080346;28;20673;-67
2021/05/06 02:04:46;;;;;;;1.70;1.60;;;;;18.70;99628.00;;;;2080399;28;20214;-67
2021/05/06 02:05:46;;;;;;;1.30;1.07;;;;;18.70;99612.00;;;;2080151;28;20249;-67
2021/05/06 02:06:47;;;;;;;1.80;1.30;;;;;18.70;99618.00;;;;2071675;28;20235;-67
2021/05/06 02:07:48;;;;;;;2.03;1.20;;;;;18.70;99624.00;;;;2071355;28;20665;-67
2021/05/06 02:08:48;;;;;;;1.20;1.10;;;;;18.70;99620.00;;;;2080363;28;20229;-67
2021/05/06 02:09:49;;;;;;;1.43;1.33;;;;;18.70;99617.00;;;;2080360;28;20221;-68
2021/05/06 02:10:53;;;;;;;1.55;1.17;;;;;18.70;99621.00;;;;2080194;28;20616;-67
2021/05/06 02:11:53;;;;;;;1.15;1.05;;;;;18.70;99615.00;;;;2080297;28;20649;-67
2021/05/06 02:12:54;;;;;;;1.53;1.40;;;;;18.70;99621.00;;;;2079555;28;20214;-67
2021/05/06 02:13:56;;;;;;;1.60;1.50;;;;;18.70;99623.00;;;;2071536;28;20249;-67
2021/05/06 02:14:59;;;;;;;1.40;1.30;;;;;18.70;99616.00;;;;2079229;28;20589;-66
2021/05/06 02:16:05;;;;;;;1.55;1.27;;;;;18.70;99629.00;;;;2080385;28;20754;-67
2021/05/06 02:17:05;;;;;;;1.40;1.13;;;;;18.70;99623.00;;;;2079048;28;20700;-67
2021/05/06 02:18:06;;;;;;;1.20;1.10;;;;;18.70;99619.00;;;;2071237;28;20222;-67
2021/05/06 02:19:07;;;;;;;2.00;1.40;;;;;18.60;99623.00;;;;2071434;28;20852;-67
2021/05/06 02:20:07;;;;;;;1.30;1.20;;;;;18.60;99618.00;;;;2070305;28;20222;-67
2021/05/06 02:21:10;;;;;;;1.73;1.20;;;;;18.70;99625.00;;;;2079599;28;20214;-67
2021/05/06 02:22:11;;;;;;;1.42;1.15;;;;;18.70;99622.00;;;;2080211;28;20673;-67
2021/05/06 02:23:11;;;;;;;1.10;1.00;;;;;18.70;99620.00;;;;2080311;28;20514;-67
2021/05/06 02:24:12;;;;;;;1.30;1.20;;;;;18.70;99614.00;;;;2079482;28;20276;-67
2021/05/06 02:25:13;;;;;;;1.80;1.23;;;;;18.70;99620.00;;;;2079558;28;20221;-67
2021/05/06 02:26:13;;;;;;;3.23;1.50;;;;;18.70;99614.00;;;;2079305;28;20214;-67
2021/05/06 02:27:13;;;;;;;1.27;1.13;;;;;18.60;99613.00;;;;2079305;28;20214;-68
2021/05/06 02:28:14;;;;;;;1.40;1.23;;;;;18.60;99611.00;;;;2080257;28;20298;-67
2021/05/06 02:29:14;;;;;;;2.20;1.30;;;;;18.60;99615.00;;;;2080067;28;20221;-67
2021/05/06 02:30:15;;;;;;;1.37;1.20;;;;;18.60;99607.00;;;;2080242;28;20261;-67
2021/05/06 02:31:15;;;;;;;1.40;1.30;;;;;18.60;99611.00;;;;2080096;28;20213;-67
2021/05/06 02:32:16;;;;;;;2.20;1.47;;;;;18.60;99609.00;;;;2080089;28;20979;-67
2021/05/06 02:33:16;;;;;;;1.33;1.23;;;;;18.70;99613.00;;;;2080170;28;20217;-67
2021/05/06 02:34:16;;;;;;;1.40;1.30;;;;;18.60;99612.00;;;;2084893;28;20829;-67
2021/05/06 02:35:17;;;;;;;1.47;1.20;;;;;18.70;99623.00;;;;2083220;28;20241;-67
2021/05/06 02:36:17;;;;;;;1.70;1.27;;;;;18.60;99619.00;;;;2076201;28;20209;-67
2021/05/06 02:37:18;;;;;;;2.00;1.37;;;;;18.60;99617.00;;;;2079217;28;20264;-67
2021/05/06 02:38:18;;;;;;;1.40;1.30;;;;;18.70;99622.00;;;;2080176;28;20249;-67
2021/05/06 02:39:19;;;;;;;1.50;1.40;;;;;18.70;99616.00;;;;2080167;28;20218;-67
2021/05/06 02:40:19;;;;;;;1.30;1.00;;;;;18.70;99615.00;;;;2080186;28;20221;-67
2021/05/06 02:41:19;;;;;;;1.80;1.53;;;;;18.60;99611.00;;;;2080061;28;20221;-67
2021/05/06 02:42:20;;;;;;;2.80;1.50;;;;;18.60;99607.00;;;;2079511;28;20719;-68
2021/05/06 02:43:20;;;;;;;1.40;1.30;;;;;18.70;99618.00;;;;2063256;28;20306;-67
2021/05/06 02:44:21;;;;;;;1.63;1.30;;;;;18.60;99609.00;;;;2071279;28;20218;-67
2021/05/06 02:45:21;;;;;;;1.60;1.50;;;;;18.60;99614.00;;;;2080070;28;20245;-67
2021/05/06 02:46:21;;;;;;;1.40;1.30;;;;;18.60;99617.00;;;;2080086;28;20218;-67
2021/05/06 02:47:22;;;;;;;1.70;1.30;;;;;18.60;99608.00;;;;2078398;28;20240;-67
2021/05/06 02:48:22;;;;;;;2.17;1.23;;;;;18.60;99611.00;;;;2071135;28;20217;-68
2021/05/06 02:49:23;;;;;;;2.07;1.40;;;;;18.60;99605.00;;;;2079160;28;20241;-68
2021/05/06 02:50:24;;;;;;;2.40;1.40;;;;;18.60;99609.00;;;;2080115;28;20692;-68
2021/05/06 02:51:30;;;;;;;1.15;1.05;;;;;18.70;99610.00;;;;2079325;28;20452;-67
2021/05/06 02:53:08;;;;;;;1.50;1.40;;;;;18.60;99604.00;;;;2062300;28;20253;-68
2021/05/06 02:53:57;;;;;;;1.48;1.35;;;;;18.60;99611.00;;;;2077324;28;20209;-67
2021/05/06 02:55:08;;;;;;;1.80;1.27;;;;;18.60;99596.00;;;;2079999;28;20216;-68
2021/05/06 02:56:17;;;;;;;1.65;1.42;;;;;18.60;99600.00;;;;2076758;28;20236;-67
2021/05/06 03:03:16;;;;;;;1.10;1.00;;;;;18.60;99591.00;;;;2068638;28;20207;-67
2021/05/06 03:04:17;;;;;;;1.10;1.00;;;;;18.60;99590.00;;;;2067880;28;20235;-67
2021/05/06 03:05:22;;;;;;;1.13;1.03;;;;;18.60;99590.00;;;;2079175;28;20210;-68
2021/05/06 03:06:27;;;;;;;1.75;1.13;;;;;18.60;99592.00;;;;2079314;28;20795;-67
2021/05/06 03:07:30;;;;;;;1.17;1.08;;;;;18.60;99589.00;;;;2079181;28;20210;-67
2021/05/06 03:08:36;;;;;;;1.40;1.30;;;;;18.60;99588.00;;;;2079824;28;20206;-68
2021/05/06 03:10:54;;;;;;;1.40;1.30;;;;;18.60;99597.00;;;;2079701;28;20210;-67
2021/05/06 03:21:26;;;;;;;1.33;1.00;;;;;18.60;99602.00;;;;2077154;28;20217;-67
2021/05/06 03:23:41;;;;;;;1.90;1.20;;;;;18.60;99589.00;;;;2076484;28;20210;-67
2021/05/06 03:24:45;;;;;;;1.93;1.30;;;;;18.60;99595.00;;;;2079823;28;20280;-67
2021/05/06 03:25:45;;;;;;;1.17;1.08;;;;;18.50;99588.00;;;;2077540;28;20297;-67
2021/05/06 03:26:45;;;;;;;1.70;1.17;;;;;18.60;99586.00;;;;2079252;28;20202;-67
2021/05/06 03:28:10;;;;;;;1.33;1.23;;;;;18.60;99589.00;;;;2079673;28;20214;-67
2021/05/06 03:29:14;;;;;;;1.10;0.90;;;;;18.60;99583.00;;;;2077303;28;20241;-67
2021/05/06 03:31:49;;;;;;;1.30;1.15;;;;;18.60;99592.00;;;;2076950;28;20689;-67
2021/05/06 03:41:47;;;;;;;0.90;0.80;;;;;18.60;99572.00;;;;2077459;28;20209;-67
2021/05/06 03:45:03;;;;;;;0.90;0.90;;;;;18.60;99576.00;;;;2075468;28;20620;-67
2021/05/06 03:47:49;;;;;;;1.30;1.10;;;;;18.60;99577.00;;;;2076607;28;20214;-67
2021/05/06 04:12:49;;;;;;;1.40;1.17;;;;;18.50;99576.00;;;;2078312;28;20213;-67
2021/05/06 04:18:54;;;;;;;1.20;1.10;;;;;18.50;99594.00;;;;2062669;28;20692;-67
2021/05/06 04:27:49;;;;;;;1.58;1.15;;;;;18.50;99594.00;;;;2078945;28;20209;-67
2021/05/06 04:31:05;;;;;;;1.73;1.10;;;;;18.50;99592.00;;;;2079590;28;20242;-67
2021/05/06 04:36:09;;;;;;;1.55;1.00;;;;;18.50;99599.00;;;;2066067;28;20748;-67
2021/05/06 04:37:10;;;;;;;1.23;0.98;;;;;18.50;99598.00;;;;2074263;28;20749;-67
2021/05/06 04:38:12;;;;;;;2.27;1.20;;;;;18.50;99594.00;;;;2070189;28;20226;-67
2021/05/06 04:39:15;;;;;;;1.38;1.20;;;;;18.50;99593.00;;;;2062780;28;20919;-67
2021/05/06 04:55:31;;;;;;;1.00;0.90;;;;;18.50;99602.00;;;;2074047;28;20209;-67
2021/05/06 04:56:03;;;;;;;1.08;0.82;;;;;18.50;99597.00;;;;2062795;28;20218;-67
2021/05/06 04:57:22;;;;;;;1.65;1.00;;;;;18.50;99605.00;;;;2080157;28;20276;-67
2021/05/06 05:04:33;;;;;;;1.13;0.90;;;;;18.50;99593.00;;;;2080668;28;20688;-67
2021/05/06 05:05:33;;;;;;;1.80;1.00;;;;;18.50;99598.00;;;;2077047;28;20220;-67
2021/05/06 05:06:37;;;;;;;1.37;1.10;;;;;18.50;99603.00;;;;2080431;28;20210;-67
2021/05/06 05:07:42;;;;;;;1.10;1.00;;;;;18.50;99601.00;;;;2080659;28;20210;-67
2021/05/06 05:08:52;;;;;;;1.80;1.10;;;;;18.50;99594.00;;;;2080887;28;20222;-68
2021/05/06 05:10:02;;;;;;;1.05;0.95;;;;;18.50;99606.00;;;;2077141;28;20233;-67
2021/05/06 05:11:21;;;;;;;1.40;1.10;;;;;18.50;99597.00;;;;2079580;28;20226;-67
2021/05/06 05:13:19;;;;;;;1.25;1.00;;;;;18.50;99604.00;;;;2077598;28;20228;-67
2021/05/06 05:21:13;;;;;;;1.52;1.02;;;;;18.50;99594.00;;;;2055538;28;20656;-67
2021/05/06 05:23:25;;;;;;;1.45;1.10;;;;;18.40;99611.00;;;;2076444;28;20316;-67
2021/05/06 05:24:26;;;;;;;1.67;0.95;;;;;18.50;99600.00;;;;2079993;28;20588;-67
2021/05/06 05:25:42;;;;;;;1.02;0.93;;;;;18.50;99594.00;;;;2077755;28;20565;-67
2021/05/06 05:26:42;;;;;;;1.50;0.80;;;;;18.50;99601.00;;;;2080810;28;20320;-67
2021/05/06 05:27:43;;;;;;;1.30;0.90;;;;;18.50;99600.00;;;;2080239;28;20206;-68
2021/05/06 05:28:43;;;;;;;1.83;1.10;;;;;18.50;99607.00;;;;2080062;28;20230;-67
2021/05/06 05:29:43;;;;;;;0.90;0.70;;;;;18.50;99608.00;;;;2080524;28;20232;-67
2021/05/06 05:30:44;;;;;;;2.27;1.10;;;;;18.50;99607.00;;;;2080625;28;20206;-68
2021/05/06 05:31:44;;;;;;;1.83;1.23;;;;;18.50;99602.00;;;;2080502;28;20272;-68
2021/05/06 05:32:45;;;;;;;1.77;1.00;;;;;18.50;99613.00;;;;2080600;28;20253;-67
2021/05/06 05:33:50;;;;;;;1.50;1.10;;;;;18.50;99611.00;;;;2080651;28;20676;-67
2021/05/06 05:35:00;;;;;;;1.15;1.05;;;;;18.50;99600.00;;;;2080704;28;20301;-67
2021/05/06 05:36:14;;;;;;;1.70;1.15;;;;;18.50;99606.00;;;;2077273;28;20834;-67
2021/05/06 05:37:18;;;;;;;1.10;0.90;;;;;18.50;99610.00;;;;2080652;28;20221;-68
2021/05/06 05:39:41;;;;;;;1.10;1.00;;;;;18.50;99608.00;;;;2080522;28;20213;-67
2021/05/06 05:41:16;;;;;;;1.23;1.10;;;;;18.50;99612.00;;;;2080486;28;20333;-67
2021/05/06 05:55:12;;;;;;;1.75;1.20;;;;;18.50;99619.00;;;;2079669;28;20214;-67
2021/05/06 05:56:13;;;;;;;1.30;1.13;;;;;18.50;99619.00;;;;2079885;28;20743;-67
2021/05/06 05:57:13;;;;;;;1.20;1.10;;;;;18.50;99620.00;;;;2079807;28;20206;-67
2021/05/06 05:58:14;;;;;;;1.60;1.30;;;;;18.50;99628.00;;;;2071256;28;20219;-68
2021/05/06 05:59:14;;;;;;;1.10;1.00;;;;;18.50;99625.00;;;;2079582;28;20210;-67
2021/05/06 06:00:15;;;;;;;1.20;1.00;;;;;18.50;99630.00;;;;2075680;28;20206;-68
2021/05/06 06:01:15;;;;;;;1.40;1.20;;;;;18.40;99632.00;;;;2080440;28;20206;-67
2021/05/06 06:02:15;;;;;;;1.60;1.00;;;;;18.40;99633.00;;;;2080357;28;20744;-67
2021/05/06 06:03:16;;;;;;;1.27;1.10;;;;;18.40;99624.00;;;;2080398;28;20704;-67
2021/05/06 06:04:16;;;;;;;1.30;1.03;;;;;18.50;99626.00;;;;2080167;28;20711;-67
2021/05/06 06:05:17;;;;;;;1.60;1.30;;;;;18.40;99631.00;;;;2080393;28;20206;-68
2021/05/06 06:06:17;;;;;;;1.33;1.20;;;;;18.40;99619.00;;;;2080383;28;20318;-68
2021/05/06 06:07:17;;;;;;;1.30;1.20;;;;;18.40;99626.00;;;;2079718;28;20238;-68
2021/05/06 06:08:18;;;;;;;1.30;1.20;;;;;18.50;99641.00;;;;2079481;28;20966;-67
2021/05/06 06:09:19;;;;;;;1.98;1.20;;;;;18.50;99626.00;;;;2080120;28;20243;-67
2021/05/06 06:10:19;;;;;;;1.67;1.40;;;;;18.50;99628.00;;;;2075903;28;20740;-68
2021/05/06 06:11:20;;;;;;;1.20;1.10;;;;;18.50;99634.00;;;;2079691;28;20782;-67
2021/05/06 06:12:20;;;;;;;1.17;1.07;;;;;18.50;99628.00;;;;2080371;28;20206;-67
2021/05/06 06:13:21;;;;;;;1.43;1.10;;;;;18.50;99621.00;;;;2080350;28;20502;-67
2021/05/06 06:14:25;;;;;;;1.50;1.20;;;;;18.50;99639.00;;;;2080403;28;20206;-67
2021/05/06 06:16:45;;;;;;;1.70;1.17;;;;;18.40;99630.00;;;;2077840;28;20214;-68
2021/05/06 06:17:47;;;;;;;2.03;1.40;;;;;18.40;99612.00;;;;2079630;28;20582;-67
2021/05/06 06:18:53;;;;;;;1.10;1.00;;;;;18.50;99627.00;;;;2078695;28;20210;-67
2021/05/06 06:19:56;;;;;;;1.50;1.40;;;;;18.50;99631.00;;;;2078206;28;20214;-68
2021/05/06 06:21:02;;;;;;;1.90;1.80;;;;;18.50;99633.00;;;;2079630;28;20210;-68
2021/05/06 06:22:06;;;;;;;1.33;1.23;;;;;18.40;99630.00;;;;2080326;28;20214;-68
2021/05/06 06:23:07;;;;;;;1.33;1.20;;;;;18.40;99633.00;;;;2079962;28;20206;-67
2021/05/06 06:24:07;;;;;;;2.33;0.97;;;;;18.40;99631.00;;;;2080233;28;20216;-67
2021/05/06 06:25:08;;;;;;;2.30;1.53;;;;;18.40;99634.00;;;;2080042;28;20220;-67
2021/05/06 06:26:08;;;;;;;1.40;1.20;;;;;18.40;99627.00;;;;2080037;28;20233;-67
2021/05/06 06:27:09;;;;;;;1.57;1.47;;;;;18.50;99626.00;;;;2080207;28;20445;-67
2021/05/06 06:28:12;;;;;;;1.50;1.40;;;;;18.40;99626.00;;;;2079804;28;20255;-68
2021/05/06 06:29:16;;;;;;;1.85;1.75;;;;;18.40;99625.00;;;;2080052;28;20275;-68
2021/05/06 06:30:16;;;;;;;2.28;1.40;;;;;18.50;99623.00;;;;2079308;28;20754;-67
2021/05/06 06:32:18;;;;;;;1.07;0.97;;;;;18.50;99631.00;;;;2080170;28;20210;-67
2021/05/06 06:33:18;;;;;;;1.60;1.50;;;;;18.50;99628.00;;;;2079595;28;20206;-68
2021/05/06 06:34:18;;;;;;;1.83;1.73;;;;;18.50;99629.00;;;;2070579;28;20291;-67
2021/05/06 06:35:19;;;;;;;1.40;1.30;;;;;18.50;99641.00;;;;2070587;28;20211;-67
2021/05/06 06:36:19;;;;;;;1.20;1.10;;;;;18.50;99632.00;;;;2079559;28;20213;-67
2021/05/06 06:37:20;;;;;;;1.73;1.30;;;;;18.50;99640.00;;;;2077291;28;20212;-68
2021/05/06 06:38:20;;;;;;;1.80;1.53;;;;;18.40;99634.00;;;;2079147;28;20217;-67
2021/05/06 06:39:23;;;;;;;1.23;1.13;;;;;18.40;99641.00;;;;2079508;28;20202;-67
2021/05/06 06:40:23;;;;;;;1.27;1.17;;;;;18.50;99636.00;;;;2078938;28;20218;-67
2021/05/06 06:41:23;;;;;;;1.40;1.30;;;;;18.50;99629.00;;;;2079019;28;20720;-67
2021/05/06 06:42:24;;;;;;;1.37;1.20;;;;;18.40;99638.00;;;;2079408;28;20677;-67
2021/05/06 06:43:24;;;;;;;2.27;1.87;;;;;18.40;99635.00;;;;2079692;28;20210;-67
2021/05/06 06:44:28;;;;;;;1.77;1.43;;;;;18.50;99632.00;;;;2079612;28;20236;-68
2021/05/06 06:45:29;;;;;;;1.60;1.50;;;;;18.50;99632.00;;;;2075688;28;20301;-67
2021/05/06 06:46:29;;;;;;;1.80;1.70;;;;;18.30;99636.00;;;;2079518;28;20265;-67
2021/05/06 06:47:29;;;;;;;1.67;1.50;;;;;18.50;99631.00;;;;2078769;28;20217;-67
2021/05/06 06:48:30;;;;;;;1.20;1.10;;;;;18.50;99627.00;;;;2070012;28;20214;-68
2021/05/06 06:49:34;;;;;;;1.50;1.40;;;;;18.50;99637.00;;;;2070779;28;20547;-67
2021/05/06 06:50:34;;;;;;;1.60;1.50;;;;;18.50;99626.00;;;;2070753;28;20584;-67
2021/05/06 06:51:35;;;;;;;2.23;1.30;;;;;18.50;99628.00;;;;2078831;28;20220;-67
2021/05/06 06:52:35;;;;;;;1.73;1.43;;;;;18.50;99619.00;;;;2078854;28;20213;-68
2021/05/06 06:53:35;;;;;;;1.20;1.10;;;;;18.50;99627.00;;;;2079033;28;20257;-67
2021/05/06 06:54:36;;;;;;;3.03;1.47;;;;;18.50;99626.00;;;;2078817;28;20222;-67
2021/05/06 06:55:36;;;;;;;1.50;1.40;;;;;18.50;99625.00;;;;2062283;28;20245;-67
2021/05/06 06:56:37;;;;;;;1.30;1.20;;;;;18.50;99625.00;;;;2070799;28;20238;-67
2021/05/06 06:57:37;;;;;;;2.23;1.37;;;;;18.50;99627.00;;;;2078904;28;20214;-68
2021/05/06 06:58:41;;;;;;;1.50;1.40;;;;;18.50;99626.00;;;;2079386;28;20716;-67
2021/05/06 06:59:41;;;;;;;1.70;1.60;;;;;18.50;99619.00;;;;2079069;28;20218;-67
2021/05/06 07:00:45;;;;;;;1.60;1.30;;;;;18.50;99628.00;;;;2077913;28;20638;-65
2021/05/06 07:01:45;;;;;;;1.35;1.25;;;;;18.50;99622.00;;;;2070154;28;20785;-67
2021/05/06 07:02:45;;;;;;;1.70;1.40;;;;;18.50;99626.00;;;;2069809;28;20226;-67
2021/05/06 07:03:46;;;;;;;1.73;1.60;;;;;18.50;99628.00;;;;2078852;28;20253;-67
2021/05/06 07:04:46;;;;;;;1.60;1.50;;;;;18.50;99631.00;;;;2079195;28;20287;-67
2021/05/06 07:05:46;;;;;;;2.00;1.80;;;;;18.50;99633.00;;;;2078970;28;20263;-67
2021/05/06 07:06:47;;;;;;;1.70;1.60;;;;;18.50;99630.00;;;;2079482;28;20214;-67
2021/05/06 07:07:47;;;;;;;1.53;1.43;;;;;18.50;99633.00;;;;2079177;28;20229;-67
2021/05/06 07:08:49;;;;;;;1.77;1.67;;;;;18.50;99625.00;;;;2079387;28;20221;-67
2021/05/06 07:09:50;;;;;;;1.25;1.15;;;;;18.50;99628.00;;;;2079842;28;20271;-67
2021/05/06 07:10:55;;;;;;;1.70;1.50;;;;;18.50;99628.00;;;;2079607;28;20271;-67
2021/05/06 07:11:56;;;;;;;2.03;1.60;;;;;18.50;99626.00;;;;2079156;28;20585;-68
2021/05/06 07:12:57;;;;;;;2.00;1.53;;;;;18.50;99630.00;;;;2070874;28;20222;-67
2021/05/06 07:13:57;;;;;;;1.57;1.47;;;;;18.60;99621.00;;;;2079246;28;20207;-67
2021/05/06 07:14:57;;;;;;;1.60;1.50;;;;;18.60;99638.00;;;;2078396;28;20218;-67
2021/05/06 07:15:59;;;;;;;1.70;1.57;;;;;18.60;99630.00;;;;2079226;28;20206;-67
2021/05/06 07:16:59;;;;;;;1.75;1.60;;;;;18.60;99634.00;;;;2079767;28;20305;-67
2021/05/06 07:17:59;;;;;;;1.70;1.60;;;;;18.60;99627.00;;;;2079572;28;20237;-67
2021/05/06 07:19:00;;;;;;;2.00;1.90;;;;;18.60;99626.00;;;;2079165;28;20292;-67
2021/05/06 07:20:00;;;;;;;1.40;1.30;;;;;18.60;99628.00;;;;2079224;28;20218;-68
2021/05/06 07:21:01;;;;;;;2.37;1.67;;;;;18.60;99628.00;;;;2079056;28;20336;-67
2021/05/06 07:22:02;;;;;;;1.45;1.35;;;;;18.60;99629.00;;;;2078867;28;20267;-67
2021/05/06 07:23:02;;;;;;;1.77;1.67;;;;;18.60;99623.00;;;;2079184;28;20659;-67
2021/05/06 07:24:03;;;;;;;2.00;1.80;;;;;18.60;99628.00;;;;2079937;28;20214;-67
2021/05/06 07:25:03;;;;;;;1.70;1.60;;;;;18.60;99627.00;;;;2079509;28;20279;-67
2021/05/06 07:26:04;;;;;;;1.97;1.37;;;;;18.60;99629.00;;;;2079756;28;20492;-67
2021/05/06 07:27:04;;;;;;;2.00;1.80;;;;;18.60;99628.00;;;;2071018;28;20254;-67
2021/05/06 07:28:13;;;;;;;1.40;1.30;;;;;18.60;99633.00;;;;2070426;28;20256;-68
2021/05/06 07:29:16;;;;;;;2.78;1.60;;;;;18.60;99626.00;;;;2070995;28;20218;-67
2021/05/06 07:30:17;;;;;;;1.85;1.50;;;;;18.60;99635.00;;;;2071612;28;20692;-68
2021/05/06 07:31:17;;;;;;;1.60;1.50;;;;;18.60;99628.00;;;;2079378;28;20249;-67
2021/05/06 07:32:17;;;;;;;1.70;1.53;;;;;18.60;99628.00;;;;2079721;28;20870;-66
2021/05/06 07:33:19;;;;;;;1.67;1.57;;;;;18.60;99636.00;;;;2079569;28;20793;-67
2021/05/06 07:34:20;;;;;;;1.80;1.70;;;;;18.60;99628.00;;;;2079734;28;20214;-67
2021/05/06 07:35:20;;;;;;;1.60;1.50;;;;;18.60;99633.00;;;;2079053;28;20210;-67
2021/05/06 07:36:20;;;;;;;1.50;1.40;;;;;18.60;99627.00;;;;2079084;28;20217;-67
2021/05/06 07:37:21;;;;;;;1.80;1.70;;;;;18.60;99632.00;;;;2079509;28;20587;-67
2021/05/06 07:38:21;;;;;;;1.53;1.43;;;;;18.60;99625.00;;;;2079463;28;20246;-67
2021/05/06 07:39:21;;;;;;;1.83;1.73;;;;;18.60;99632.00;;;;2079706;28;20217;-67
2021/05/06 07:40:22;;;;;;;1.50;1.40;;;;;18.60;99631.00;;;;2079724;28;20730;-68
2021/05/06 07:41:22;;;;;;;1.97;1.80;;;;;18.60;99627.00;;;;2079762;28;20248;-67
2021/05/06 07:42:22;;;;;;;1.77;1.67;;;;;18.60;99626.00;;;;2079008;28;20222;-68
2021/05/06 07:43:24;;;;;;;1.77;1.67;;;;;18.60;99628.00;;;;2079096;28;20236;-68
2021/05/06 07:44:24;;;;;;;1.88;1.70;;;;;18.60;99637.00;;;;2079686;28;20222;-68
2021/05/06 07:45:24;;;;;;;1.90;1.77;;;;;18.60;99639.00;;;;2078981;28;20221;-67
2021/05/06 07:46:25;;;;;;;1.67;1.57;;;;;18.60;99634.00;;;;2079042;28;20276;-67
2021/05/06 07:47:25;;;;;;;1.60;1.50;;;;;18.60;99632.00;;;;2079093;28;20217;-67
2021/05/06 07:48:25;;;;;;;1.90;1.80;;;;;18.60;99630.00;;;;2062026;28;20215;-67
2021/05/06 07:49:26;;;;;;;1.87;1.77;;;;;18.60;99630.00;;;;2070241;28;20218;-67
2021/05/06 07:50:26;;;;;;;1.47;1.37;;;;;18.60;99627.00;;;;2078668;28;20225;-67
2021/05/06 07:51:27;;;;;;;1.53;1.43;;;;;18.70;99624.00;;;;2078108;28;20210;-67
2021/05/06 07:52:27;;;;;;;1.87;1.70;;;;;18.60;99623.00;;;;2078346;28;20320;-67
2021/05/06 07:53:37;;;;;;;1.90;1.80;;;;;18.60;99627.00;;;;2079192;28;20723;-67
2021/05/06 07:54:37;;;;;;;2.47;2.03;;;;;18.60;99620.00;;;;2075787;28;20202;-67
2021/05/06 07:55:37;;;;;;;1.53;1.43;;;;;18.60;99624.00;;;;2079100;28;20217;-67
2021/05/06 07:56:38;;;;;;;1.73;1.53;;;;;18.60;99623.00;;;;2078819;28;20218;-68
2021/05/06 07:57:38;;;;;;;1.90;1.60;;;;;18.70;99622.00;;;;2078698;28;20228;-67
2021/05/06 07:58:39;;;;;;;1.60;1.50;;;;;18.70;99624.00;;;;2078942;28;20237;-67
2021/05/06 07:59:39;;;;;;;1.70;1.60;;;;;18.70;99627.00;;;;2079037;28;20257;-68
2021/05/06 08:00:40;;;;;;;1.67;1.53;;;;;18.70;99622.00;;;;2079383;28;20459;-68
2021/05/06 08:01:40;;;;;;;1.80;1.70;;;;;18.70;99625.00;;;;2078881;28;20643;-67
2021/05/06 08:02:42;;;;;;;1.50;1.40;;;;;18.70;99612.00;;;;2078727;28;20291;-67
2021/05/06 08:03:42;;;;;;;1.50;1.40;;;;;18.70;99612.00;;;;2079177;28;20344;-67
2021/05/06 08:04:42;;;;;;;1.77;1.50;;;;;18.70;99618.00;;;;2079661;28;20704;-67
2021/05/06 08:05:43;;;;;;;1.97;1.80;;;;;18.70;99624.00;;;;2079714;28;20225;-67
2021/05/06 08:06:43;;;;;;;1.83;1.73;;;;;18.70;99618.00;;;;2079686;28;20684;-67
2021/05/06 08:07:43;;;;;;;1.80;1.70;;;;;18.70;99613.00;;;;2079411;28;20214;-67
2021/05/06 08:08:44;;;;;;;1.73;1.63;;;;;18.70;99614.00;;;;2079441;28;20212;-68
2021/05/06 08:09:44;;;;;;;2.80;1.73;;;;;18.60;99618.00;;;;2079582;28;20216;-67
2021/05/06 08:10:44;;;;;;;1.37;1.27;;;;;18.60;99616.00;;;;2078741;28;20218;-68
2021/05/06 08:11:45;;;;;;;1.70;1.60;;;;;18.60;99609.00;;;;2070625;28;20298;-68
2021/05/06 08:12:45;;;;;;;1.87;1.77;;;;;18.60;99618.00;;;;2078993;28;20248;-67
2021/05/06 08:13:46;;;;;;;1.73;1.63;;;;;18.60;99614.00;;;;2079029;28;20217;-67
2021/05/06 08:14:47;;;;;;;1.77;1.67;;;;;18.60;99620.00;;;;2078879;28;20332;-67
2021/05/06 08:15:48;;;;;;;1.70;1.60;;;;;18.60;99614.00;;;;2079065;28;20245;-67
2021/05/06 08:16:49;;;;;;;1.90;1.70;;;;;18.70;99627.00;;;;2080656;28;20271;-67
2021/05/06 08:17:53;;;;;;;1.57;1.47;;;;;18.60;99614.00;;;;2080968;28;20368;-67
2021/05/06 08:18:53;;;;;;;1.73;1.63;;;;;18.60;99618.00;;;;2080932;28;20222;-67
2021/05/06 08:19:54;;;;;;;1.83;1.73;;;;;18.60;99594.00;;;;2080526;28;20237;-68
2021/05/06 08:20:54;;;;;;;1.80;1.70;;;;;18.60;99625.00;;;;2080555;28;20239;-67
2021/05/06 08:21:55;;;;;;;1.80;1.70;;;;;18.60;99626.00;;;;2080671;28;20218;-68
2021/05/06 08:22:55;;;;;;;2.00;1.57;;;;;18.60;99623.00;;;;2080925;28;20296;-67
2021/05/06 08:23:55;;;;;;;2.33;2.13;;;;;18.70;99619.00;;;;2080684;28;20267;-65
2021/05/06 08:24:56;;;;;;;2.00;1.90;;;;;18.60;99621.00;;;;2072185;28;20277;-68
2021/05/06 08:25:56;;;;;;;1.57;1.47;;;;;18.60;99623.00;;;;2064180;28;20227;-68
2021/05/06 08:26:56;;;;;;;2.00;1.80;;;;;18.60;99627.00;;;;2080386;28;20293;-67